Terminal Aerodrome Forecast
Issued by NWS

Home | Current Version | Previous Version | Text Only | Print | Product List | Glossary On
Versions: 1 2 3 4 5 6 7 8 9 10 11 12 13 14 15 16 17 18 19 20 21 22 23 24 25 26 27 28 29 30 31 32 33 34 35 36 37 38 39 40
357
FTUS43 KDLH 042255 AAC
TAFBRD
TAF AMD
KBRD 042255Z 0423/0518 23008KT 2SM BR VCSH OVC004
      TEMPO 0423/0503 1SM BR
     FM050300 23004KT P6SM BKN009
     FM051000 18004KT P6SM BKN008
     FM051700 13009KT P6SM OVC020=

USA.gov is the U.S. government's official web portal to all federal, state and local government web resources and services.